sensor_id;sensor_type;location;lat;lon;timestamp;P1;durP1;ratioP1;P2;durP2;ratioP2
55710;SDS011;41612;51.994;5.880;2022-07-12T00:00:12;1.67;;;1.17;;
55710;SDS011;41612;51.994;5.880;2022-07-12T00:02:38;2.72;;;1.23;;
55710;SDS011;41612;51.994;5.880;2022-07-12T00:05:04;2.20;;;1.08;;
55710;SDS011;41612;51.994;5.880;2022-07-12T00:07:30;2.08;;;1.00;;
55710;SDS011;41612;51.994;5.880;2022-07-12T00:09:55;1.65;;;0.80;;
55710;SDS011;41612;51.994;5.880;2022-07-12T00:12:21;1.67;;;0.80;;
55710;SDS011;41612;51.994;5.880;2022-07-12T00:14:47;1.60;;;0.93;;
55710;SDS011;41612;51.994;5.880;2022-07-12T00:17:13;1.40;;;0.90;;
55710;SDS011;41612;51.994;5.880;2022-07-12T00:19:39;2.05;;;1.20;;
55710;SDS011;41612;51.994;5.880;2022-07-12T00:22:05;1.90;;;1.10;;
55710;SDS011;41612;51.994;5.880;2022-07-12T00:24:30;1.33;;;0.80;;
55710;SDS011;41612;51.994;5.880;2022-07-12T00:26:56;1.95;;;1.00;;
55710;SDS011;41612;51.994;5.880;2022-07-12T00:29:22;2.30;;;1.20;;
55710;SDS011;41612;51.994;5.880;2022-07-12T00:31:47;2.47;;;1.00;;
55710;SDS011;41612;51.994;5.880;2022-07-12T00:34:13;1.73;;;0.90;;
55710;SDS011;41612;51.994;5.880;2022-07-12T00:36:39;1.40;;;0.90;;
55710;SDS011;41612;51.994;5.880;2022-07-12T00:39:05;1.70;;;0.90;;
55710;SDS011;41612;51.994;5.880;2022-07-12T00:41:30;1.10;;;0.73;;
55710;SDS011;41612;51.994;5.880;2022-07-12T00:43:56;1.30;;;0.70;;
55710;SDS011;41612;51.994;5.880;2022-07-12T00:46:22;1.92;;;1.00;;
55710;SDS011;41612;51.994;5.880;2022-07-12T00:48:49;1.67;;;0.90;;
55710;SDS011;41612;51.994;5.880;2022-07-12T00:51:17;1.80;;;0.93;;
55710;SDS011;41612;51.994;5.880;2022-07-12T00:53:43;1.50;;;1.00;;
55710;SDS011;41612;51.994;5.880;2022-07-12T00:56:10;1.65;;;1.17;;
55710;SDS011;41612;51.994;5.880;2022-07-12T00:58:37;1.88;;;0.98;;
55710;SDS011;41612;51.994;5.880;2022-07-12T01:01:04;1.88;;;1.00;;
55710;SDS011;41612;51.994;5.880;2022-07-12T01:03:30;1.67;;;0.90;;
55710;SDS011;41612;51.994;5.880;2022-07-12T01:05:56;1.35;;;0.95;;
55710;SDS011;41612;51.994;5.880;2022-07-12T01:08:21;1.38;;;0.85;;
55710;SDS011;41612;51.994;5.880;2022-07-12T01:10:48;2.15;;;1.30;;
55710;SDS011;41612;51.994;5.880;2022-07-12T01:13:15;5.75;;;2.15;;
55710;SDS011;41612;51.994;5.880;2022-07-12T01:15:41;1.33;;;0.85;;
55710;SDS011;41612;51.994;5.880;2022-07-12T01:18:07;1.63;;;0.90;;
55710;SDS011;41612;51.994;5.880;2022-07-12T01:20:35;3.30;;;1.20;;
55710;SDS011;41612;51.994;5.880;2022-07-12T01:23:01;1.23;;;0.80;;
55710;SDS011;41612;51.994;5.880;2022-07-12T01:25:27;1.05;;;0.82;;
55710;SDS011;41612;51.994;5.880;2022-07-12T01:27:53;1.75;;;1.10;;
55710;SDS011;41612;51.994;5.880;2022-07-12T01:30:19;1.92;;;1.05;;
55710;SDS011;41612;51.994;5.880;2022-07-12T01:32:45;2.58;;;1.30;;
55710;SDS011;41612;51.994;5.880;2022-07-12T01:35:11;1.75;;;1.20;;
55710;SDS011;41612;51.994;5.880;2022-07-12T01:37:37;1.75;;;1.05;;
55710;SDS011;41612;51.994;5.880;2022-07-12T01:40:05;2.45;;;1.00;;
55710;SDS011;41612;51.994;5.880;2022-07-12T01:42:32;1.33;;;0.90;;
55710;SDS011;41612;51.994;5.880;2022-07-12T01:44:58;1.88;;;1.10;;
55710;SDS011;41612;51.994;5.880;2022-07-12T01:47:30;2.00;;;0.90;;
55710;SDS011;41612;51.994;5.880;2022-07-12T01:49:58;1.73;;;1.02;;
55710;SDS011;41612;51.994;5.880;2022-07-12T01:52:24;1.50;;;1.00;;
55710;SDS011;41612;51.994;5.880;2022-07-12T01:54:50;1.33;;;0.85;;
55710;SDS011;41612;51.994;5.880;2022-07-12T01:57:17;1.60;;;1.10;;
55710;SDS011;41612;51.994;5.880;2022-07-12T01:59:44;3.65;;;1.13;;
55710;SDS011;41612;51.994;5.880;2022-07-12T02:02:10;1.77;;;1.05;;
55710;SDS011;41612;51.994;5.880;2022-07-12T02:04:39;1.77;;;0.90;;
55710;SDS011;41612;51.994;5.880;2022-07-12T02:07:09;1.30;;;0.80;;
55710;SDS011;41612;51.994;5.880;2022-07-12T02:09:35;2.55;;;1.23;;
55710;SDS011;41612;51.994;5.880;2022-07-12T02:12:00;1.80;;;1.02;;
55710;SDS011;41612;51.994;5.880;2022-07-12T02:14:26;1.35;;;0.93;;
55710;SDS011;41612;51.994;5.880;2022-07-12T02:16:52;2.00;;;1.10;;
55710;SDS011;41612;51.994;5.880;2022-07-12T02:19:33;1.80;;;0.90;;
55710;SDS011;41612;51.994;5.880;2022-07-12T02:21:58;2.28;;;1.10;;
55710;SDS011;41612;51.994;5.880;2022-07-12T02:24:24;2.55;;;1.10;;
55710;SDS011;41612;51.994;5.880;2022-07-12T02:26:50;2.05;;;1.30;;
55710;SDS011;41612;51.994;5.880;2022-07-12T02:29:15;1.77;;;1.10;;
55710;SDS011;41612;51.994;5.880;2022-07-12T02:31:41;2.03;;;1.20;;
55710;SDS011;41612;51.994;5.880;2022-07-12T02:34:07;3.80;;;1.33;;
55710;SDS011;41612;51.994;5.880;2022-07-12T02:36:40;1.63;;;1.00;;
55710;SDS011;41612;51.994;5.880;2022-07-12T02:39:05;2.28;;;1.25;;
55710;SDS011;41612;51.994;5.880;2022-07-12T02:41:31;1.98;;;1.25;;
55710;SDS011;41612;51.994;5.880;2022-07-12T02:43:57;1.55;;;1.10;;
55710;SDS011;41612;51.994;5.880;2022-07-12T02:46:23;2.22;;;1.35;;
55710;SDS011;41612;51.994;5.880;2022-07-12T02:48:48;1.67;;;1.23;;
55710;SDS011;41612;51.994;5.880;2022-07-12T02:51:14;1.73;;;1.15;;
55710;SDS011;41612;51.994;5.880;2022-07-12T02:53:40;1.80;;;1.05;;
55710;SDS011;41612;51.994;5.880;2022-07-12T02:56:06;1.92;;;1.25;;
55710;SDS011;41612;51.994;5.880;2022-07-12T02:58:33;1.88;;;1.13;;
55710;SDS011;41612;51.994;5.880;2022-07-12T03:00:59;1.80;;;1.05;;
55710;SDS011;41612;51.994;5.880;2022-07-12T03:03:25;2.13;;;1.35;;
55710;SDS011;41612;51.994;5.880;2022-07-12T03:05:50;1.90;;;1.00;;
55710;SDS011;41612;51.994;5.880;2022-07-12T03:08:16;2.20;;;1.23;;
55710;SDS011;41612;51.994;5.880;2022-07-12T03:10:42;2.05;;;1.20;;
55710;SDS011;41612;51.994;5.880;2022-07-12T03:13:07;1.90;;;1.25;;
55710;SDS011;41612;51.994;5.880;2022-07-12T03:15:34;2.00;;;1.30;;
55710;SDS011;41612;51.994;5.880;2022-07-12T03:18:00;1.70;;;1.02;;
55710;SDS011;41612;51.994;5.880;2022-07-12T03:20:26;1.50;;;1.10;;
55710;SDS011;41612;51.994;5.880;2022-07-12T03:22:53;2.50;;;1.65;;
55710;SDS011;41612;51.994;5.880;2022-07-12T03:25:19;1.85;;;1.40;;
55710;SDS011;41612;51.994;5.880;2022-07-12T03:27:45;1.60;;;1.10;;
55710;SDS011;41612;51.994;5.880;2022-07-12T03:30:11;1.98;;;1.15;;
55710;SDS011;41612;51.994;5.880;2022-07-12T03:32:38;1.50;;;1.00;;
55710;SDS011;41612;51.994;5.880;2022-07-12T03:35:04;2.20;;;1.48;;
55710;SDS011;41612;51.994;5.880;2022-07-12T03:37:44;2.08;;;1.20;;
55710;SDS011;41612;51.994;5.880;2022-07-12T03:40:10;2.00;;;1.50;;
55710;SDS011;41612;51.994;5.880;2022-07-12T03:42:36;2.15;;;1.45;;
55710;SDS011;41612;51.994;5.880;2022-07-12T03:45:02;2.22;;;1.48;;
55710;SDS011;41612;51.994;5.880;2022-07-12T03:47:28;2.03;;;1.42;;
55710;SDS011;41612;51.994;5.880;2022-07-12T03:49:55;2.78;;;1.52;;
55710;SDS011;41612;51.994;5.880;2022-07-12T03:52:21;2.28;;;1.33;;
55710;SDS011;41612;51.994;5.880;2022-07-12T03:54:47;2.00;;;1.23;;
55710;SDS011;41612;51.994;5.880;2022-07-12T03:57:12;2.22;;;1.23;;
55710;SDS011;41612;51.994;5.880;2022-07-12T03:59:38;1.80;;;1.10;;
55710;SDS011;41612;51.994;5.880;2022-07-12T04:02:04;1.83;;;1.30;;
55710;SDS011;41612;51.994;5.880;2022-07-12T04:04:30;4.10;;;1.52;;
55710;SDS011;41612;51.994;5.880;2022-07-12T04:06:55;1.80;;;1.30;;
55710;SDS011;41612;51.994;5.880;2022-07-12T04:09:21;2.17;;;1.50;;
55710;SDS011;41612;51.994;5.880;2022-07-12T04:11:47;2.47;;;1.60;;
55710;SDS011;41612;51.994;5.880;2022-07-12T04:14:12;1.75;;;1.30;;
55710;SDS011;41612;51.994;5.880;2022-07-12T04:16:38;2.97;;;1.50;;
55710;SDS011;41612;51.994;5.880;2022-07-12T04:19:04;1.90;;;1.20;;
55710;SDS011;41612;51.994;5.880;2022-07-12T04:21:33;2.38;;;1.33;;
55710;SDS011;41612;51.994;5.880;2022-07-12T04:23:58;2.30;;;1.33;;
55710;SDS011;41612;51.994;5.880;2022-07-12T04:26:24;1.92;;;1.20;;
55710;SDS011;41612;51.994;5.880;2022-07-12T04:28:50;1.75;;;1.17;;
55710;SDS011;41612;51.994;5.880;2022-07-12T04:31:16;1.92;;;1.20;;
55710;SDS011;41612;51.994;5.880;2022-07-12T04:33:41;2.53;;;1.88;;
55710;SDS011;41612;51.994;5.880;2022-07-12T04:36:07;1.75;;;1.15;;
55710;SDS011;41612;51.994;5.880;2022-07-12T04:38:33;1.77;;;1.23;;
55710;SDS011;41612;51.994;5.880;2022-07-12T04:40:58;2.58;;;1.25;;
55710;SDS011;41612;51.994;5.880;2022-07-12T04:43:24;1.95;;;1.10;;
55710;SDS011;41612;51.994;5.880;2022-07-12T04:45:52;1.70;;;1.08;;
55710;SDS011;41612;51.994;5.880;2022-07-12T04:48:19;2.72;;;1.45;;
55710;SDS011;41612;51.994;5.880;2022-07-12T04:50:47;2.30;;;1.40;;
55710;SDS011;41612;51.994;5.880;2022-07-12T04:53:13;2.05;;;1.40;;
55710;SDS011;41612;51.994;5.880;2022-07-12T04:55:38;3.50;;;2.92;;
55710;SDS011;41612;51.994;5.880;2022-07-12T04:58:04;5.38;;;4.88;;
55710;SDS011;41612;51.994;5.880;2022-07-12T05:00:30;5.43;;;4.88;;
55710;SDS011;41612;51.994;5.880;2022-07-12T05:02:57;5.07;;;4.55;;
55710;SDS011;41612;51.994;5.880;2022-07-12T05:05:28;6.57;;;5.95;;
55710;SDS011;41612;51.994;5.880;2022-07-12T05:07:54;5.03;;;4.53;;
55710;SDS011;41612;51.994;5.880;2022-07-12T05:10:19;4.68;;;4.18;;
55710;SDS011;41612;51.994;5.880;2022-07-12T05:12:45;2.60;;;2.10;;
55710;SDS011;41612;51.994;5.880;2022-07-12T05:15:11;5.95;;;3.15;;
55710;SDS011;41612;51.994;5.880;2022-07-12T05:17:36;4.70;;;3.53;;
55710;SDS011;41612;51.994;5.880;2022-07-12T05:20:02;5.60;;;5.10;;
55710;SDS011;41612;51.994;5.880;2022-07-12T05:22:28;5.00;;;4.38;;
55710;SDS011;41612;51.994;5.880;2022-07-12T05:24:54;6.68;;;5.97;;
55710;SDS011;41612;51.994;5.880;2022-07-12T05:27:19;6.40;;;5.78;;
55710;SDS011;41612;51.994;5.880;2022-07-12T05:29:45;12.27;;;10.98;;
55710;SDS011;41612;51.994;5.880;2022-07-12T05:32:11;15.43;;;13.82;;
55710;SDS011;41612;51.994;5.880;2022-07-12T05:34:37;15.65;;;14.05;;
55710;SDS011;41612;51.994;5.880;2022-07-12T05:37:03;11.82;;;10.65;;
55710;SDS011;41612;51.994;5.880;2022-07-12T05:39:29;14.30;;;12.90;;
55710;SDS011;41612;51.994;5.880;2022-07-12T05:41:55;14.80;;;13.30;;
55710;SDS011;41612;51.994;5.880;2022-07-12T05:44:21;14.50;;;13.02;;
55710;SDS011;41612;51.994;5.880;2022-07-12T05:46:47;13.00;;;11.68;;
55710;SDS011;41612;51.994;5.880;2022-07-12T05:49:13;11.70;;;10.57;;
55710;SDS011;41612;51.994;5.880;2022-07-12T05:51:39;10.23;;;9.23;;
55710;SDS011;41612;51.994;5.880;2022-07-12T05:54:23;9.48;;;8.57;;
55710;SDS011;41612;51.994;5.880;2022-07-12T05:56:49;7.80;;;7.10;;
55710;SDS011;41612;51.994;5.880;2022-07-12T05:59:16;12.00;;;10.80;;
55710;SDS011;41612;51.994;5.880;2022-07-12T06:01:42;11.55;;;10.45;;
55710;SDS011;41612;51.994;5.880;2022-07-12T06:04:08;11.35;;;9.73;;
55710;SDS011;41612;51.994;5.880;2022-07-12T06:06:33;10.07;;;8.75;;
55710;SDS011;41612;51.994;5.880;2022-07-12T06:08:59;12.23;;;10.15;;
55710;SDS011;41612;51.994;5.880;2022-07-12T06:11:25;10.13;;;9.13;;
55710;SDS011;41612;51.994;5.880;2022-07-12T06:13:50;10.05;;;8.63;;
55710;SDS011;41612;51.994;5.880;2022-07-12T06:16:16;9.00;;;8.20;;
55710;SDS011;41612;51.994;5.880;2022-07-12T06:18:42;7.70;;;6.93;;
55710;SDS011;41612;51.994;5.880;2022-07-12T06:21:07;8.77;;;7.90;;
55710;SDS011;41612;51.994;5.880;2022-07-12T06:23:33;7.78;;;6.97;;
55710;SDS011;41612;51.994;5.880;2022-07-12T06:25:59;8.32;;;7.53;;
55710;SDS011;41612;51.994;5.880;2022-07-12T06:28:24;6.60;;;6.00;;
55710;SDS011;41612;51.994;5.880;2022-07-12T06:30:50;7.70;;;6.32;;
55710;SDS011;41612;51.994;5.880;2022-07-12T06:33:16;8.45;;;7.65;;
55710;SDS011;41612;51.994;5.880;2022-07-12T06:35:41;7.97;;;7.07;;
55710;SDS011;41612;51.994;5.880;2022-07-12T06:38:07;8.68;;;7.88;;
55710;SDS011;41612;51.994;5.880;2022-07-12T06:40:32;8.73;;;7.53;;
55710;SDS011;41612;51.994;5.880;2022-07-12T06:42:58;7.18;;;6.55;;
55710;SDS011;41612;51.994;5.880;2022-07-12T06:45:27;6.30;;;5.70;;
55710;SDS011;41612;51.994;5.880;2022-07-12T06:47:53;8.35;;;7.55;;
55710;SDS011;41612;51.994;5.880;2022-07-12T06:50:19;8.77;;;7.88;;
55710;SDS011;41612;51.994;5.880;2022-07-12T06:52:44;10.80;;;8.52;;
55710;SDS011;41612;51.994;5.880;2022-07-12T06:55:10;8.98;;;8.07;;
55710;SDS011;41612;51.994;5.880;2022-07-12T06:57:36;8.35;;;7.50;;
55710;SDS011;41612;51.994;5.880;2022-07-12T07:00:03;8.93;;;7.32;;
55710;SDS011;41612;51.994;5.880;2022-07-12T07:02:32;9.40;;;8.50;;
55710;SDS011;41612;51.994;5.880;2022-07-12T07:04:58;7.80;;;7.10;;
55710;SDS011;41612;51.994;5.880;2022-07-12T07:07:23;6.82;;;6.18;;
55710;SDS011;41612;51.994;5.880;2022-07-12T07:09:52;6.80;;;6.15;;
55710;SDS011;41612;51.994;5.880;2022-07-12T07:12:18;8.68;;;6.57;;
55710;SDS011;41612;51.994;5.880;2022-07-12T07:14:43;7.00;;;5.93;;
55710;SDS011;41612;51.994;5.880;2022-07-12T07:17:09;5.53;;;4.60;;
55710;SDS011;41612;51.994;5.880;2022-07-12T07:19:36;5.90;;;4.97;;
55710;SDS011;41612;51.994;5.880;2022-07-12T07:22:02;6.68;;;5.55;;
55710;SDS011;41612;51.994;5.880;2022-07-12T07:24:28;6.55;;;5.00;;
55710;SDS011;41612;51.994;5.880;2022-07-12T07:26:53;5.30;;;4.80;;
55710;SDS011;41612;51.994;5.880;2022-07-12T07:29:54;7.18;;;5.60;;
55710;SDS011;41612;51.994;5.880;2022-07-12T07:32:38;6.63;;;5.03;;
55710;SDS011;41612;51.994;5.880;2022-07-12T07:35:04;5.63;;;3.80;;
55710;SDS011;41612;51.994;5.880;2022-07-12T07:37:33;6.95;;;4.35;;
55710;SDS011;41612;51.994;5.880;2022-07-12T07:39:59;6.45;;;4.05;;
55710;SDS011;41612;51.994;5.880;2022-07-12T07:42:24;5.30;;;3.78;;
55710;SDS011;41612;51.994;5.880;2022-07-12T07:44:50;6.20;;;5.00;;
55710;SDS011;41612;51.994;5.880;2022-07-12T07:47:16;5.38;;;4.88;;
55710;SDS011;41612;51.994;5.880;2022-07-12T07:49:42;5.85;;;5.15;;
55710;SDS011;41612;51.994;5.880;2022-07-12T07:52:07;4.63;;;4.22;;
55710;SDS011;41612;51.994;5.880;2022-07-12T07:54:33;5.18;;;4.65;;
55710;SDS011;41612;51.994;5.880;2022-07-12T07:56:59;6.60;;;4.03;;
55710;SDS011;41612;51.994;5.880;2022-07-12T07:59:24;6.82;;;6.13;;
55710;SDS011;41612;51.994;5.880;2022-07-12T08:01:50;6.75;;;4.25;;
55710;SDS011;41612;51.994;5.880;2022-07-12T08:04:18;5.53;;;3.97;;
55710;SDS011;41612;51.994;5.880;2022-07-12T08:06:46;3.90;;;3.30;;
55710;SDS011;41612;51.994;5.880;2022-07-12T08:09:12;5.03;;;4.32;;
55710;SDS011;41612;51.994;5.880;2022-07-12T08:11:38;5.80;;;3.97;;
55710;SDS011;41612;51.994;5.880;2022-07-12T08:14:04;5.15;;;4.65;;
55710;SDS011;41612;51.994;5.880;2022-07-12T08:16:31;5.18;;;4.57;;
55710;SDS011;41612;51.994;5.880;2022-07-12T08:18:57;6.53;;;5.10;;
55710;SDS011;41612;51.994;5.880;2022-07-12T08:21:23;6.13;;;4.50;;
55710;SDS011;41612;51.994;5.880;2022-07-12T08:23:49;9.75;;;5.50;;
55710;SDS011;41612;51.994;5.880;2022-07-12T08:26:15;8.38;;;5.80;;
55710;SDS011;41612;51.994;5.880;2022-07-12T08:28:41;5.30;;;4.43;;
55710;SDS011;41612;51.994;5.880;2022-07-12T08:31:07;5.85;;;3.85;;
55710;SDS011;41612;51.994;5.880;2022-07-12T08:33:33;5.45;;;4.20;;
55710;SDS011;41612;51.994;5.880;2022-07-12T08:35:58;4.15;;;2.63;;
55710;SDS011;41612;51.994;5.880;2022-07-12T08:38:36;5.65;;;4.88;;
55710;SDS011;41612;51.994;5.880;2022-07-12T08:41:07;4.03;;;3.22;;
55710;SDS011;41612;51.994;5.880;2022-07-12T08:43:34;4.57;;;4.18;;
55710;SDS011;41612;51.994;5.880;2022-07-12T08:46:11;5.10;;;4.05;;
55710;SDS011;41612;51.994;5.880;2022-07-12T08:48:38;5.20;;;4.63;;
55710;SDS011;41612;51.994;5.880;2022-07-12T08:51:06;4.95;;;4.30;;
55710;SDS011;41612;51.994;5.880;2022-07-12T08:53:42;9.60;;;4.47;;
55710;SDS011;41612;51.994;5.880;2022-07-12T08:56:29;5.93;;;4.60;;
55710;SDS011;41612;51.994;5.880;2022-07-12T08:59:14;4.32;;;3.10;;
55710;SDS011;41612;51.994;5.880;2022-07-12T09:01:47;5.45;;;4.70;;
55710;SDS011;41612;51.994;5.880;2022-07-12T09:04:24;6.93;;;4.82;;
55710;SDS011;41612;51.994;5.880;2022-07-12T09:06:52;4.43;;;3.75;;
55710;SDS011;41612;51.994;5.880;2022-07-12T09:09:25;5.50;;;4.35;;
55710;SDS011;41612;51.994;5.880;2022-07-12T09:11:52;5.20;;;4.10;;
55710;SDS011;41612;51.994;5.880;2022-07-12T09:14:18;5.95;;;4.32;;
55710;SDS011;41612;51.994;5.880;2022-07-12T09:16:57;3.92;;;3.25;;
55710;SDS011;41612;51.994;5.880;2022-07-12T09:19:28;6.53;;;4.28;;
55710;SDS011;41612;51.994;5.880;2022-07-12T09:21:54;5.88;;;3.42;;
55710;SDS011;41612;51.994;5.880;2022-07-12T09:24:23;4.20;;;3.40;;
55710;SDS011;41612;51.994;5.880;2022-07-12T09:26:53;4.30;;;3.88;;
55710;SDS011;41612;51.994;5.880;2022-07-12T09:29:24;5.22;;;3.90;;
55710;SDS011;41612;51.994;5.880;2022-07-12T09:31:51;7.00;;;5.03;;
55710;SDS011;41612;51.994;5.880;2022-07-12T09:34:36;4.72;;;2.25;;
55710;SDS011;41612;51.994;5.880;2022-07-12T09:37:23;4.93;;;3.67;;
55710;SDS011;41612;51.994;5.880;2022-07-12T09:39:51;5.35;;;3.13;;
55710;SDS011;41612;51.994;5.880;2022-07-12T09:42:20;5.07;;;2.97;;
55710;SDS011;41612;51.994;5.880;2022-07-12T09:44:47;6.40;;;2.80;;
55710;SDS011;41612;51.994;5.880;2022-07-12T09:47:14;4.25;;;2.65;;
55710;SDS011;41612;51.994;5.880;2022-07-12T09:52:28;3.22;;;1.90;;
55710;SDS011;41612;51.994;5.880;2022-07-12T09:54:56;4.53;;;2.40;;
55710;SDS011;41612;51.994;5.880;2022-07-12T09:57:29;2.83;;;1.88;;
55710;SDS011;41612;51.994;5.880;2022-07-12T09:59:56;3.20;;;1.92;;
55710;SDS011;41612;51.994;5.880;2022-07-12T10:02:24;5.22;;;2.50;;
55710;SDS011;41612;51.994;5.880;2022-07-12T10:04:59;5.70;;;2.90;;
55710;SDS011;41612;51.994;5.880;2022-07-12T10:07:27;4.60;;;2.80;;
55710;SDS011;41612;51.994;5.880;2022-07-12T10:09:53;6.50;;;2.95;;
55710;SDS011;41612;51.994;5.880;2022-07-12T10:12:20;3.97;;;1.95;;
55710;SDS011;41612;51.994;5.880;2022-07-12T10:15:09;3.42;;;1.65;;
55710;SDS011;41612;51.994;5.880;2022-07-12T10:17:39;2.38;;;1.60;;
55710;SDS011;41612;51.994;5.880;2022-07-12T10:20:18;4.32;;;1.92;;
55710;SDS011;41612;51.994;5.880;2022-07-12T10:22:49;3.17;;;1.60;;
55710;SDS011;41612;51.994;5.880;2022-07-12T10:25:30;3.22;;;1.98;;
55710;SDS011;41612;51.994;5.880;2022-07-12T10:27:59;2.53;;;1.58;;
55710;SDS011;41612;51.994;5.880;2022-07-12T10:30:27;2.38;;;1.35;;
55710;SDS011;41612;51.994;5.880;2022-07-12T10:32:57;3.97;;;2.00;;
55710;SDS011;41612;51.994;5.880;2022-07-12T10:35:25;2.15;;;1.20;;
55710;SDS011;41612;51.994;5.880;2022-07-12T10:38:13;2.60;;;1.50;;
55710;SDS011;41612;51.994;5.880;2022-07-12T10:40:39;2.95;;;2.00;;
55710;SDS011;41612;51.994;5.880;2022-07-12T10:45:38;3.75;;;1.70;;
55710;SDS011;41612;51.994;5.880;2022-07-12T10:48:07;2.40;;;1.40;;
55710;SDS011;41612;51.994;5.880;2022-07-12T10:50:57;4.72;;;2.00;;
55710;SDS011;41612;51.994;5.880;2022-07-12T10:53:31;2.42;;;1.40;;
55710;SDS011;41612;51.994;5.880;2022-07-12T10:56:13;3.55;;;1.95;;
55710;SDS011;41612;51.994;5.880;2022-07-12T10:58:53;4.78;;;1.50;;
55710;SDS011;41612;51.994;5.880;2022-07-12T11:01:25;2.80;;;1.88;;
55710;SDS011;41612;51.994;5.880;2022-07-12T11:06:38;2.95;;;1.42;;
55710;SDS011;41612;51.994;5.880;2022-07-12T11:11:42;4.03;;;2.17;;
55710;SDS011;41612;51.994;5.880;2022-07-12T11:14:10;3.08;;;2.13;;
55710;SDS011;41612;51.994;5.880;2022-07-12T11:16:43;5.18;;;2.90;;
55710;SDS011;41612;51.994;5.880;2022-07-12T11:19:09;4.60;;;2.60;;
55710;SDS011;41612;51.994;5.880;2022-07-12T11:21:35;4.85;;;3.25;;
55710;SDS011;41612;51.994;5.880;2022-07-12T11:24:01;2.20;;;1.20;;
55710;SDS011;41612;51.994;5.880;2022-07-12T11:26:27;4.65;;;3.63;;
55710;SDS011;41612;51.994;5.880;2022-07-12T11:28:57;2.97;;;1.80;;
55710;SDS011;41612;51.994;5.880;2022-07-12T11:31:25;2.83;;;1.90;;
55710;SDS011;41612;51.994;5.880;2022-07-12T11:33:51;3.75;;;1.65;;
55710;SDS011;41612;51.994;5.880;2022-07-12T11:36:16;2.58;;;1.55;;
55710;SDS011;41612;51.994;5.880;2022-07-12T11:38:43;5.47;;;2.50;;
55710;SDS011;41612;51.994;5.880;2022-07-12T11:41:11;3.53;;;2.35;;
55710;SDS011;41612;51.994;5.880;2022-07-12T11:43:38;3.53;;;1.90;;
55710;SDS011;41612;51.994;5.880;2022-07-12T11:46:04;3.97;;;2.28;;
55710;SDS011;41612;51.994;5.880;2022-07-12T11:48:31;3.42;;;2.42;;
55710;SDS011;41612;51.994;5.880;2022-07-12T11:51:04;4.43;;;2.22;;
55710;SDS011;41612;51.994;5.880;2022-07-12T11:53:34;1.63;;;0.95;;
55710;SDS011;41612;51.994;5.880;2022-07-12T11:56:01;4.75;;;1.83;;
55710;SDS011;41612;51.994;5.880;2022-07-12T11:58:29;2.92;;;2.17;;
55710;SDS011;41612;51.994;5.880;2022-07-12T12:00:55;3.20;;;2.40;;
55710;SDS011;41612;51.994;5.880;2022-07-12T12:03:21;4.57;;;2.03;;
55710;SDS011;41612;51.994;5.880;2022-07-12T12:05:48;2.55;;;1.80;;
55710;SDS011;41612;51.994;5.880;2022-07-12T12:08:18;2.90;;;2.30;;
55710;SDS011;41612;51.994;5.880;2022-07-12T12:10:54;2.40;;;1.38;;
55710;SDS011;41612;51.994;5.880;2022-07-12T12:13:21;3.88;;;2.80;;
55710;SDS011;41612;51.994;5.880;2022-07-12T12:15:49;3.58;;;1.65;;
55710;SDS011;41612;51.994;5.880;2022-07-12T12:18:16;3.35;;;1.38;;
55710;SDS011;41612;51.994;5.880;2022-07-12T12:20:56;3.38;;;2.20;;
55710;SDS011;41612;51.994;5.880;2022-07-12T12:23:42;2.67;;;1.60;;
55710;SDS011;41612;51.994;5.880;2022-07-12T12:26:16;2.85;;;1.70;;
55710;SDS011;41612;51.994;5.880;2022-07-12T12:28:47;2.13;;;1.57;;
55710;SDS011;41612;51.994;5.880;2022-07-12T12:31:14;2.97;;;1.85;;
55710;SDS011;41612;51.994;5.880;2022-07-12T12:33:51;1.50;;;0.80;;
55710;SDS011;41612;51.994;5.880;2022-07-12T12:38:45;1.90;;;1.10;;
55710;SDS011;41612;51.994;5.880;2022-07-12T12:41:12;2.35;;;1.65;;
55710;SDS011;41612;51.994;5.880;2022-07-12T12:43:40;2.75;;;1.30;;
55710;SDS011;41612;51.994;5.880;2022-07-12T12:46:06;2.15;;;1.30;;
55710;SDS011;41612;51.994;5.880;2022-07-12T12:48:32;1.80;;;1.02;;
55710;SDS011;41612;51.994;5.880;2022-07-12T12:51:11;3.28;;;1.27;;
55710;SDS011;41612;51.994;5.880;2022-07-12T12:53:40;1.92;;;1.00;;
55710;SDS011;41612;51.994;5.880;2022-07-12T12:56:07;5.93;;;2.47;;
55710;SDS011;41612;51.994;5.880;2022-07-12T12:58:34;3.60;;;1.63;;
55710;SDS011;41612;51.994;5.880;2022-07-12T13:01:00;1.80;;;0.80;;
55710;SDS011;41612;51.994;5.880;2022-07-12T13:03:26;2.65;;;0.98;;
55710;SDS011;41612;51.994;5.880;2022-07-12T13:05:55;3.13;;;1.50;;
55710;SDS011;41612;51.994;5.880;2022-07-12T13:08:21;4.15;;;1.10;;
55710;SDS011;41612;51.994;5.880;2022-07-12T13:10:47;2.58;;;1.75;;
55710;SDS011;41612;51.994;5.880;2022-07-12T13:13:33;1.73;;;0.93;;
55710;SDS011;41612;51.994;5.880;2022-07-12T13:16:00;2.90;;;1.83;;
55710;SDS011;41612;51.994;5.880;2022-07-12T13:18:26;3.38;;;1.90;;
55710;SDS011;41612;51.994;5.880;2022-07-12T13:20:52;3.35;;;1.10;;
55710;SDS011;41612;51.994;5.880;2022-07-12T13:23:17;1.77;;;0.80;;
55710;SDS011;41612;51.994;5.880;2022-07-12T13:25:43;1.45;;;0.80;;
55710;SDS011;41612;51.994;5.880;2022-07-12T13:28:09;2.05;;;1.20;;
55710;SDS011;41612;51.994;5.880;2022-07-12T13:30:37;3.08;;;1.70;;
55710;SDS011;41612;51.994;5.880;2022-07-12T13:33:07;3.38;;;1.30;;
55710;SDS011;41612;51.994;5.880;2022-07-12T13:35:32;3.17;;;1.58;;
55710;SDS011;41612;51.994;5.880;2022-07-12T13:37:59;3.00;;;1.38;;
55710;SDS011;41612;51.994;5.880;2022-07-12T13:40:25;1.23;;;0.60;;
55710;SDS011;41612;51.994;5.880;2022-07-12T13:42:51;1.63;;;0.90;;
55710;SDS011;41612;51.994;5.880;2022-07-12T13:45:19;3.15;;;1.95;;
55710;SDS011;41612;51.994;5.880;2022-07-12T13:47:48;3.30;;;2.20;;
55710;SDS011;41612;51.994;5.880;2022-07-12T13:50:25;2.28;;;1.05;;
55710;SDS011;41612;51.994;5.880;2022-07-12T13:52:51;3.17;;;1.70;;
55710;SDS011;41612;51.994;5.880;2022-07-12T13:55:17;2.15;;;1.10;;
55710;SDS011;41612;51.994;5.880;2022-07-12T13:57:43;3.95;;;1.73;;
55710;SDS011;41612;51.994;5.880;2022-07-12T14:00:10;6.60;;;2.17;;
55710;SDS011;41612;51.994;5.880;2022-07-12T14:02:45;2.67;;;1.60;;
55710;SDS011;41612;51.994;5.880;2022-07-12T14:07:47;3.08;;;1.23;;
55710;SDS011;41612;51.994;5.880;2022-07-12T14:10:13;1.25;;;0.60;;
55710;SDS011;41612;51.994;5.880;2022-07-12T14:12:39;0.80;;;0.40;;
55710;SDS011;41612;51.994;5.880;2022-07-12T14:15:05;3.30;;;1.13;;
55710;SDS011;41612;51.994;5.880;2022-07-12T14:17:38;1.90;;;1.10;;
55710;SDS011;41612;51.994;5.880;2022-07-12T14:20:20;4.03;;;1.70;;
55710;SDS011;41612;51.994;5.880;2022-07-12T14:22:46;2.63;;;1.02;;
55710;SDS011;41612;51.994;5.880;2022-07-12T14:25:13;1.70;;;0.70;;
55710;SDS011;41612;51.994;5.880;2022-07-12T14:27:40;1.75;;;0.70;;
55710;SDS011;41612;51.994;5.880;2022-07-12T14:30:07;1.33;;;0.75;;
55710;SDS011;41612;51.994;5.880;2022-07-12T14:32:35;2.38;;;1.30;;
55710;SDS011;41612;51.994;5.880;2022-07-12T14:35:10;1.83;;;0.82;;
55710;SDS011;41612;51.994;5.880;2022-07-12T14:37:36;2.20;;;1.23;;
55710;SDS011;41612;51.994;5.880;2022-07-12T14:40:03;1.65;;;0.75;;
55710;SDS011;41612;51.994;5.880;2022-07-12T14:42:30;1.35;;;0.80;;
55710;SDS011;41612;51.994;5.880;2022-07-12T14:44:56;1.60;;;0.98;;
55710;SDS011;41612;51.994;5.880;2022-07-12T14:47:22;1.60;;;0.93;;
55710;SDS011;41612;51.994;5.880;2022-07-12T14:50:00;1.50;;;0.90;;
55710;SDS011;41612;51.994;5.880;2022-07-12T14:52:27;2.53;;;1.00;;
55710;SDS011;41612;51.994;5.880;2022-07-12T14:54:52;2.25;;;0.88;;
55710;SDS011;41612;51.994;5.880;2022-07-12T14:57:18;4.07;;;1.08;;
55710;SDS011;41612;51.994;5.880;2022-07-12T14:59:43;1.30;;;0.80;;
55710;SDS011;41612;51.994;5.880;2022-07-12T15:02:09;0.73;;;0.50;;
55710;SDS011;41612;51.994;5.880;2022-07-12T15:04:35;2.25;;;1.00;;